Airport Name : Benguela

Other Name : Benguela

ICAO : FNBG

IATA : BUG

FAA :

Latitude : -12.609025

Longitude : 13.403711

Country : Angola

Local Date and Time : 28 Feb 2021 17:29

 

TAF (Terminal Aerodrome Forecast)

TAF FNBG 281055Z 2812/2824 30010KT 9999 FEW020 TEMPO 2813/2815 CAVOK BECMG 2822/2824 24004KT

 

METAR (METeorological Aerodrome Report)

To Charter a Jet Click here.